Time;durP1;ratioP1;P1;durP2;ratioP2;P2;SDS_P1;SDS_P2;PMS_P1;PMS_P2;Temp;Humidity;BMP_temperature;BMP_pressure;BME280_temperature;BME280_humidity;BME280_pressure;Samples;Min_cycle;Max_cycle;Signal;HPM_P1;HPM_P2
2021/10/06 00:01:31;;;;;;;13.30;3.30;;;;;;;16.90;58.98;99896.01;113061;1198;22992;-62
2021/10/06 00:04:00;;;;;;;17.30;3.90;;;;;;;16.91;59.18;99900.45;113153;1198;25019;-63
2021/10/06 00:06:28;;;;;;;10.20;3.20;;;;;;;16.91;59.29;99896.10;112992;1191;24065;-61
2021/10/06 00:08:56;;;;;;;15.90;3.70;;;;;;;16.90;59.39;99896.77;112985;1198;22429;-62
2021/10/06 00:11:25;;;;;;;14.80;3.50;;;;;;;16.92;59.65;99898.05;113026;1198;25140;-62
2021/10/06 00:13:54;;;;;;;14.00;4.00;;;;;;;16.93;59.58;99891.98;113070;1198;24250;-62
2021/10/06 00:16:22;;;;;;;12.30;3.30;;;;;;;16.94;59.61;99890.08;113092;1198;25107;-62
2021/10/06 00:18:50;;;;;;;11.90;3.20;;;;;;;16.94;59.67;99884.90;113093;1198;22441;-63
2021/10/06 00:21:19;;;;;;;13.30;3.60;;;;;;;16.96;59.65;99890.45;112965;1198;25180;-62
2021/10/06 00:23:47;;;;;;;13.60;3.70;;;;;;;16.97;59.87;99891.77;113020;1198;22490;-62
2021/10/06 00:26:15;;;;;;;13.40;4.00;;;;;;;16.99;59.86;99898.88;113104;1198;22567;-62
2021/10/06 00:28:43;;;;;;;14.10;3.70;;;;;;;17.01;59.79;99905.78;113083;1193;25076;-62
2021/10/06 00:31:11;;;;;;;15.20;4.30;;;;;;;17.01;59.93;99907.52;113023;1193;22551;-62
2021/10/06 00:33:39;;;;;;;12.00;3.40;;;;;;;17.02;59.91;99898.54;113038;1198;24912;-62
2021/10/06 00:36:08;;;;;;;14.70;3.60;;;;;;;17.02;60.00;99884.18;112979;1195;25463;-63
2021/10/06 00:38:38;;;;;;;13.00;3.20;;;;;;;17.01;60.01;99882.59;112995;1198;25030;-63
2021/10/06 00:41:05;;;;;;;;;;;;;;;17.01;60.29;99891.02;113009;1198;25148;-63
2021/10/06 00:43:33;;;;;;;13.30;3.50;;;;;;;16.98;60.39;99896.94;112903;1198;24039;-62
2021/10/06 00:46:02;;;;;;;14.50;4.00;;;;;;;16.95;60.48;99903.84;112842;1199;24253;-63
2021/10/06 00:48:30;;;;;;;15.10;3.70;;;;;;;16.94;60.52;99908.17;113562;1198;22447;-63
2021/10/06 00:50:58;;;;;;;16.30;3.40;;;;;;;16.93;60.70;99912.27;113021;1198;24100;-63
2021/10/06 00:53:28;;;;;;;11.50;3.60;;;;;;;16.93;60.73;99911.30;113047;1198;22433;-62
2021/10/06 00:55:56;;;;;;;20.90;4.90;;;;;;;16.94;60.88;99912.94;113108;1197;22941;-62
2021/10/06 00:58:25;;;;;;;17.00;3.40;;;;;;;16.95;60.96;99903.85;113010;1198;25038;-62
2021/10/06 01:00:53;;;;;;;16.90;3.30;;;;;;;16.97;61.04;99905.45;113135;1198;22417;-63
2021/10/06 01:03:21;;;;;;;14.00;3.60;;;;;;;17.00;61.08;99914.91;113105;1198;24140;-62
2021/10/06 01:05:50;;;;;;;11.50;3.60;;;;;;;17.03;61.20;99921.55;113017;1198;22439;-63
2021/10/06 01:08:19;;;;;;;17.40;4.30;;;;;;;17.06;61.31;99918.00;113069;1198;22457;-63
2021/10/06 01:10:48;;;;;;;18.70;3.90;;;;;;;17.10;61.37;99918.73;113173;1198;24062;-63
2021/10/06 01:13:17;;;;;;;11.90;3.50;;;;;;;17.14;61.54;99921.36;113077;1198;22440;-63
2021/10/06 01:15:45;;;;;;;18.90;4.50;;;;;;;17.16;61.68;99925.48;113075;1198;24903;-62
2021/10/06 01:18:13;;;;;;;12.50;4.10;;;;;;;17.17;61.58;99926.02;113008;1190;22437;-62
2021/10/06 01:20:42;;;;;;;12.30;4.20;;;;;;;17.19;61.63;99919.14;112956;1198;22440;-63
2021/10/06 01:23:10;;;;;;;9.80;3.00;;;;;;;17.21;61.67;99918.49;113148;1190;22462;-62
2021/10/06 01:25:38;;;;;;;19.20;4.10;;;;;;;17.22;61.71;99914.98;113072;1190;22989;-62
2021/10/06 01:28:06;;;;;;;12.80;3.70;;;;;;;17.23;61.74;99913.86;113076;1197;23024;-63
2021/10/06 01:30:34;;;;;;;14.70;4.00;;;;;;;17.24;61.83;99911.12;113101;1198;22441;-62
2021/10/06 01:33:03;;;;;;;15.60;4.30;;;;;;;17.24;61.84;99911.69;113030;1190;22416;-62
2021/10/06 01:35:31;;;;;;;11.30;3.10;;;;;;;17.24;61.87;99911.95;113007;1190;22498;-62
2021/10/06 01:37:59;;;;;;;13.40;3.80;;;;;;;17.23;61.96;99914.27;113076;1190;22447;-62
2021/10/06 01:40:27;;;;;;;16.20;3.70;;;;;;;17.22;61.98;99911.77;112991;1198;24938;-62
2021/10/06 01:42:55;;;;;;;16.30;4.00;;;;;;;17.22;62.06;99911.86;113076;1198;22476;-63
2021/10/06 01:45:25;;;;;;;14.00;3.80;;;;;;;17.19;62.18;99910.16;113424;1190;24098;-62
2021/10/06 01:47:54;;;;;;;13.60;3.30;;;;;;;17.18;62.28;99916.48;113049;1198;22455;-62
2021/10/06 01:50:26;;;;;;;14.10;3.90;;;;;;;17.16;62.41;99914.09;113147;1198;23689;-62
2021/10/06 01:52:56;;;;;;;14.20;4.30;;;;;;;17.16;62.74;99916.98;113087;1198;25353;-62
2021/10/06 01:55:28;;;;;;;;;;;;;;;17.14;63.15;99916.64;113040;1193;22401;-63
2021/10/06 01:57:56;;;;;;;12.00;3.20;;;;;;;17.11;63.26;99916.83;113022;1190;22454;-62
2021/10/06 02:00:26;;;;;;;17.30;4.50;;;;;;;17.09;63.43;99927.15;113002;1198;24309;-62
2021/10/06 02:02:54;;;;;;;10.90;4.20;;;;;;;17.06;63.48;99935.60;113126;1198;22493;-62
2021/10/06 02:05:23;;;;;;;15.70;4.70;;;;;;;17.03;63.54;99935.13;112994;1198;23840;-62
2021/10/06 02:07:54;;;;;;;12.30;4.80;;;;;;;17.01;63.65;99933.98;113038;1198;24056;-62
2021/10/06 02:10:23;;;;;;;17.70;5.10;;;;;;;16.99;63.80;99933.84;113204;1190;22631;-61
2021/10/06 02:12:51;;;;;;;15.50;3.70;;;;;;;16.97;63.90;99929.15;113089;1198;22475;-62
2021/10/06 02:15:19;;;;;;;16.50;4.50;;;;;;;16.96;63.94;99934.04;113078;1190;24072;-62
2021/10/06 02:17:47;;;;;;;13.00;4.40;;;;;;;16.95;64.03;99928.15;113076;1198;22461;-62
2021/10/06 02:20:16;;;;;;;16.40;4.10;;;;;;;16.94;64.23;99926.59;113079;1190;22430;-63
2021/10/06 02:22:45;;;;;;;17.00;5.10;;;;;;;16.92;64.24;99931.34;113355;1198;24158;-63
2021/10/06 02:25:13;;;;;;;18.30;5.30;;;;;;;16.91;64.32;99937.02;113063;1198;22828;-63
2021/10/06 02:27:41;;;;;;;14.30;3.70;;;;;;;16.91;64.42;99945.84;113207;1198;24038;-62
2021/10/06 02:30:12;;;;;;;14.30;4.10;;;;;;;16.87;64.60;99944.44;113010;1198;25058;-63
2021/10/06 02:32:40;;;;;;;16.70;4.60;;;;;;;16.83;64.66;99944.95;113355;1190;22409;-62
2021/10/06 02:35:10;;;;;;;18.70;5.10;;;;;;;16.82;64.69;99950.64;113114;1198;25127;-62
2021/10/06 02:37:40;;;;;;;15.10;4.60;;;;;;;16.82;64.75;99950.95;113095;1198;22455;-62
2021/10/06 02:40:11;;;;;;;17.40;4.60;;;;;;;16.81;64.93;99952.05;113103;1198;25086;-63
2021/10/06 02:42:40;;;;;;;19.50;5.00;;;;;;;16.81;64.93;99952.61;113164;1190;22441;-63
2021/10/06 02:45:11;;;;;;;16.60;5.40;;;;;;;16.82;65.00;99956.91;113169;1190;22446;-63
2021/10/06 02:47:40;;;;;;;17.60;4.70;;;;;;;16.80;65.07;99952.62;113216;1198;22417;-62
2021/10/06 02:50:12;;;;;;;15.80;4.50;;;;;;;16.78;65.18;99950.16;113122;1198;22822;-63
2021/10/06 02:52:41;;;;;;;15.10;5.10;;;;;;;16.79;65.32;99956.27;112988;1198;22642;-64
2021/10/06 02:55:11;;;;;;;16.00;4.90;;;;;;;16.77;65.30;99960.17;113044;1198;22427;-62
2021/10/06 02:57:39;;;;;;;13.80;4.60;;;;;;;16.77;65.57;99964.59;113006;1198;24892;-62
2021/10/06 03:00:10;;;;;;;13.90;4.20;;;;;;;16.77;65.58;99967.21;112983;1198;26405;-62
2021/10/06 03:02:40;;;;;;;12.70;4.80;;;;;;;16.78;65.65;99973.51;113043;1196;22581;-62
2021/10/06 03:05:10;;;;;;;20.60;4.60;;;;;;;16.74;65.82;99978.27;113065;1198;22501;-62
2021/10/06 03:07:38;;;;;;;20.30;7.90;;;;;;;16.70;66.68;99977.38;113259;1198;22492;-62
2021/10/06 03:10:10;;;;;;;23.00;10.00;;;;;;;16.66;68.91;99975.78;113140;1190;22420;-63
2021/10/06 03:12:39;;;;;;;24.30;10.50;;;;;;;16.58;70.56;99982.52;113324;1198;24074;-63
2021/10/06 03:15:10;;;;;;;21.00;9.70;;;;;;;16.50;71.02;99981.91;113096;1198;22551;-63
2021/10/06 03:17:39;;;;;;;24.40;12.10;;;;;;;16.44;71.44;99985.44;113090;1183;24152;-62
2021/10/06 03:20:10;;;;;;;24.80;11.80;;;;;;;16.41;71.57;99998.84;112925;1198;22457;-63
2021/10/06 03:22:39;;;;;;;21.40;10.10;;;;;;;16.37;71.94;100000.40;113074;1190;25107;-62
2021/10/06 03:25:09;;;;;;;24.20;10.90;;;;;;;16.33;72.36;100008.17;113103;1196;22437;-62
2021/10/06 03:27:37;;;;;;;26.60;9.80;;;;;;;16.27;72.75;100011.24;113241;1198;24085;-62
2021/10/06 03:30:09;;;;;;;23.00;10.30;;;;;;;16.20;72.96;100013.54;113278;1190;23796;-62
2021/10/06 03:32:37;;;;;;;24.00;11.30;;;;;;;16.13;73.43;100016.00;113177;1198;22443;-62
2021/10/06 03:35:08;;;;;;;24.80;11.60;;;;;;;16.08;73.54;100033.23;113082;1198;22427;-64
2021/10/06 03:37:37;;;;;;;24.40;11.80;;;;;;;16.04;73.96;100038.65;113038;1190;25108;-62
2021/10/06 03:40:08;;;;;;;26.50;11.80;;;;;;;16.00;74.06;100046.72;113189;1190;25130;-62
2021/10/06 03:42:36;;;;;;;28.50;10.80;;;;;;;15.97;74.36;100054.55;113115;1190;22433;-62
2021/10/06 03:45:07;;;;;;;26.90;12.60;;;;;;;15.93;74.62;100059.64;113073;1190;25299;-62
2021/10/06 03:47:35;;;;;;;27.40;12.30;;;;;;;15.90;74.80;100060.78;113092;1190;25029;-62
2021/10/06 03:50:04;;;;;;;25.80;10.60;;;;;;;15.87;75.19;100069.41;112965;1198;24030;-62
2021/10/06 03:52:33;;;;;;;28.60;11.80;;;;;;;15.83;75.47;100073.98;113145;1198;25315;-62
2021/10/06 03:55:01;;;;;;;26.00;11.70;;;;;;;15.77;76.12;100076.16;113024;1198;24159;-63
2021/10/06 03:57:29;;;;;;;24.70;10.80;;;;;;;15.69;76.21;100074.70;113008;1198;24062;-62
2021/10/06 03:59:57;;;;;;;24.30;12.10;;;;;;;15.60;76.80;100079.83;113042;1198;22501;-64
2021/10/06 04:02:25;;;;;;;23.50;10.10;;;;;;;15.52;76.44;100080.15;112947;1198;22426;-64
2021/10/06 04:04:53;;;;;;;22.00;10.30;;;;;;;15.48;76.43;100084.67;112994;1191;22433;-64
2021/10/06 04:07:21;;;;;;;18.50;7.60;;;;;;;15.44;76.46;100084.94;112910;1198;22434;-64
2021/10/06 04:09:49;;;;;;;15.60;5.80;;;;;;;15.40;76.19;100089.62;113029;1198;25124;-64
2021/10/06 04:12:18;;;;;;;16.80;6.50;;;;;;;15.34;76.29;100096.34;112987;1198;22483;-63
2021/10/06 04:14:46;;;;;;;14.90;5.40;;;;;;;15.29;75.98;100103.52;112986;1198;22453;-63
2021/10/06 04:17:14;;;;;;;11.90;3.40;;;;;;;15.25;75.77;100104.89;113004;1198;25093;-63
2021/10/06 04:19:42;;;;;;;13.40;4.80;;;;;;;15.20;75.59;100109.77;112969;1198;25085;-63
2021/10/06 04:22:10;;;;;;;11.60;3.00;;;;;;;15.16;75.43;100109.83;112942;1198;22570;-63
2021/10/06 04:24:38;;;;;;;9.20;2.30;;;;;;;15.10;75.19;100111.63;113034;1198;25093;-63
2021/10/06 04:27:06;;;;;;;7.60;1.70;;;;;;;15.07;75.21;100116.42;112963;1198;23128;-63
2021/10/06 04:29:34;;;;;;;7.90;2.20;;;;;;;15.03;75.04;100120.02;112942;1198;22475;-63
2021/10/06 04:32:03;;;;;;;5.90;1.40;;;;;;;14.99;74.98;100119.09;112889;1190;22425;-63
2021/10/06 04:34:31;;;;;;;5.00;1.30;;;;;;;14.95;74.64;100108.94;113322;1190;24127;-63
2021/10/06 04:36:59;;;;;;;6.20;1.40;;;;;;;14.91;74.67;100107.15;113425;1198;25110;-63
2021/10/06 04:39:28;;;;;;;7.20;1.20;;;;;;;14.90;74.52;100105.56;115294;1197;22368;-63
2021/10/06 04:41:56;;;;;;;5.80;1.60;;;;;;;14.88;74.59;100113.02;114336;1198;25001;-63
2021/10/06 04:44:24;;;;;;;8.20;1.60;;;;;;;14.87;74.59;100117.98;112796;1198;24294;-63
2021/10/06 04:46:52;;;;;;;9.30;2.00;;;;;;;14.87;74.82;100125.08;112848;1196;24057;-63
2021/10/06 04:49:20;;;;;;;7.40;1.70;;;;;;;14.86;74.66;100135.30;113273;1198;22478;-63
2021/10/06 04:51:48;;;;;;;4.70;1.30;;;;;;;14.86;74.67;100137.34;112940;1198;22438;-63
2021/10/06 04:54:17;;;;;;;5.10;1.50;;;;;;;14.84;74.67;100141.95;112968;1190;22413;-63
2021/10/06 04:56:45;;;;;;;4.10;1.30;;;;;;;14.82;74.66;100144.50;113011;1198;22443;-63
2021/10/06 04:59:13;;;;;;;6.10;1.30;;;;;;;14.81;74.57;100145.98;112992;1198;22694;-63
2021/10/06 05:01:42;;;;;;;5.00;1.60;;;;;;;14.83;74.68;100152.11;113046;1190;22492;-62
2021/10/06 05:04:10;;;;;;;6.20;1.30;;;;;;;14.85;74.71;100161.42;113178;1198;25164;-63
2021/10/06 05:06:38;;;;;;;6.70;1.50;;;;;;;14.86;74.63;100161.89;113063;1198;25076;-62
2021/10/06 05:09:07;;;;;;;5.30;1.30;;;;;;;14.87;74.74;100163.41;113035;1198;22429;-64
2021/10/06 05:11:36;;;;;;;7.70;1.50;;;;;;;14.89;74.93;100172.80;113216;1190;25003;-63
2021/10/06 05:14:04;;;;;;;9.20;1.90;;;;;;;14.88;74.97;100182.42;113399;1198;22423;-63
2021/10/06 05:16:32;;;;;;;10.30;1.40;;;;;;;14.85;75.16;100184.88;113070;1198;22441;-63
2021/10/06 05:19:02;;;;;;;7.00;1.60;;;;;;;14.81;75.47;100189.33;113150;1184;24283;-63
2021/10/06 05:21:31;;;;;;;7.60;2.30;;;;;;;14.77;75.64;100197.08;113384;1193;23566;-63
2021/10/06 05:23:59;;;;;;;11.90;2.20;;;;;;;14.72;75.92;100206.11;113120;1190;24223;-63
2021/10/06 05:26:27;;;;;;;6.70;1.70;;;;;;;14.65;76.13;100207.22;112995;1198;22539;-63
2021/10/06 05:28:55;;;;;;;7.90;1.80;;;;;;;14.61;76.04;100204.86;112991;1190;22425;-62
2021/10/06 05:31:24;;;;;;;5.30;1.40;;;;;;;14.59;76.28;100207.26;112925;1198;26323;-62
2021/10/06 05:33:52;;;;;;;8.50;1.50;;;;;;;14.58;76.43;100203.80;113059;1198;22746;-62
2021/10/06 05:36:21;;;;;;;5.30;1.60;;;;;;;14.58;76.44;100197.00;113291;1191;23851;-63
2021/10/06 05:38:49;;;;;;;12.00;1.90;;;;;;;14.60;76.37;100199.50;112786;1190;24183;-63
2021/10/06 05:41:19;;;;;;;6.60;1.70;;;;;;;14.65;76.64;100198.70;112943;1198;25121;-63
2021/10/06 05:43:47;;;;;;;6.20;1.60;;;;;;;14.67;76.85;100200.23;113107;1198;25146;-62
2021/10/06 05:46:15;;;;;;;10.60;2.50;;;;;;;14.69;76.76;100199.52;112960;1190;24991;-63
2021/10/06 05:48:43;;;;;;;6.80;1.70;;;;;;;14.70;76.84;100205.04;113051;1190;22576;-63
2021/10/06 05:51:11;;;;;;;6.20;1.60;;;;;;;14.69;76.83;100212.09;112907;1190;24054;-63
2021/10/06 05:53:39;;;;;;;5.60;1.70;;;;;;;14.67;76.86;100214.08;112889;1190;25171;-63
2021/10/06 05:56:07;;;;;;;7.20;1.90;;;;;;;14.66;77.02;100219.44;112875;1184;24040;-63
2021/10/06 05:58:35;;;;;;;9.70;3.10;;;;;;;14.68;77.22;100229.15;112959;1198;22411;-62
2021/10/06 06:01:04;;;;;;;9.90;3.30;;;;;;;14.70;77.43;100238.14;112964;1198;22416;-62
2021/10/06 06:03:32;;;;;;;7.50;2.50;;;;;;;14.70;77.66;100241.25;112938;1198;25108;-62
2021/10/06 06:06:00;;;;;;;9.70;3.00;;;;;;;14.69;77.51;100249.88;112756;1192;22454;-62
2021/10/06 06:08:28;;;;;;;9.40;3.10;;;;;;;14.70;77.47;100254.13;112941;1193;22429;-62
2021/10/06 06:10:57;;;;;;;10.20;3.00;;;;;;;14.71;77.66;100254.48;112882;1190;22500;-63
2021/10/06 06:13:25;;;;;;;10.90;3.40;;;;;;;14.73;77.76;100256.34;112857;1198;22497;-63
2021/10/06 06:15:54;;;;;;;12.10;2.80;;;;;;;14.74;78.01;100258.34;113154;1190;22594;-63
2021/10/06 06:18:22;;;;;;;10.30;2.30;;;;;;;14.74;78.25;100260.59;115297;1198;22456;-63
2021/10/06 06:20:51;;;;;;;13.70;3.10;;;;;;;14.75;78.23;100270.55;117200;1198;22344;-63
2021/10/06 06:23:19;;;;;;;9.10;2.70;;;;;;;14.76;78.29;100276.11;117223;1198;22444;-62
2021/10/06 06:25:47;;;;;;;10.60;3.30;;;;;;;14.76;78.28;100285.27;113530;1183;24056;-62
2021/10/06 06:28:15;;;;;;;12.90;3.50;;;;;;;14.76;78.42;100293.50;112893;1190;22495;-64
2021/10/06 06:30:44;;;;;;;194.00;119.80;;;;;;;14.77;78.48;100299.33;112957;1198;22558;-62
2021/10/06 06:33:12;;;;;;;35.90;20.60;;;;;;;14.78;78.57;100303.05;112950;1190;22527;-63
2021/10/06 06:35:41;;;;;;;17.90;6.40;;;;;;;14.78;78.60;100299.54;113012;1198;22430;-62
2021/10/06 06:38:10;;;;;;;13.70;4.40;;;;;;;14.79;78.83;100303.02;113098;1197;22445;-62
2021/10/06 06:40:41;;;;;;;16.30;5.80;;;;;;;14.79;78.77;100302.09;113335;1193;25162;-62
2021/10/06 06:43:10;;;;;;;14.40;4.80;;;;;;;14.79;78.74;100303.77;113065;1190;22445;-64
2021/10/06 06:45:39;;;;;;;16.40;5.80;;;;;;;14.78;78.89;100303.30;113106;1198;23831;-62
2021/10/06 06:48:07;;;;;;;18.20;5.80;;;;;;;14.79;78.95;100303.16;113073;1190;22655;-62
2021/10/06 06:50:36;;;;;;;15.20;5.20;;;;;;;14.79;78.93;100303.17;113038;1198;22433;-62
2021/10/06 06:53:04;;;;;;;15.60;4.70;;;;;;;14.80;79.08;100304.90;112965;1190;22419;-62
2021/10/06 06:55:32;;;;;;;15.50;5.00;;;;;;;14.81;79.06;100308.42;113192;1190;24282;-62
2021/10/06 06:58:00;;;;;;;17.40;5.20;;;;;;;14.82;78.94;100309.35;112938;1198;25123;-62
2021/10/06 07:00:28;;;;;;;15.80;4.70;;;;;;;14.83;78.97;100309.60;112968;1190;22645;-62
2021/10/06 07:02:56;;;;;;;20.80;5.90;;;;;;;14.84;79.07;100309.77;113600;1171;22587;-60
2021/10/06 07:05:25;;;;;;;12.90;4.70;;;;;;;14.85;78.88;100313.34;113213;1198;24928;-62
2021/10/06 07:07:53;;;;;;;11.30;3.00;;;;;;;14.84;79.33;100308.44;113158;1198;22476;-64
2021/10/06 07:10:21;;;;;;;13.90;3.60;;;;;;;14.83;79.38;100312.21;113123;1193;22443;-62
2021/10/06 07:12:49;;;;;;;11.20;3.30;;;;;;;14.83;79.44;100313.18;113408;1198;22480;-61
2021/10/06 07:15:18;;;;;;;8.60;3.10;;;;;;;14.86;79.28;100316.77;113616;1193;24762;-61
2021/10/06 07:17:46;;;;;;;11.00;3.90;;;;;;;14.87;79.39;100320.60;113304;1198;25058;-61
2021/10/06 07:20:14;;;;;;;10.90;4.10;;;;;;;14.88;79.29;100322.91;113118;1198;22449;-60
2021/10/06 07:22:45;;;;;;;12.70;4.50;;;;;;;14.92;79.28;100327.06;113149;1198;25146;-61
2021/10/06 07:25:14;;;;;;;9.30;3.80;;;;;;;14.97;79.30;100327.48;113081;1198;22433;-61
2021/10/06 07:27:43;;;;;;;10.50;4.10;;;;;;;15.03;79.33;100329.14;113163;1193;24081;-62
2021/10/06 07:30:13;;;;;;;9.70;4.00;;;;;;;15.08;79.32;100328.42;113098;1198;22443;-61
2021/10/06 07:32:42;;;;;;;11.50;4.10;;;;;;;15.13;79.39;100325.52;113395;1198;27204;-63
2021/10/06 07:35:12;;;;;;;12.70;4.00;;;;;;;15.17;79.45;100322.77;113365;1198;24212;-61
2021/10/06 07:37:41;;;;;;;9.40;3.40;;;;;;;15.19;79.27;100323.95;113253;1198;22446;-61
2021/10/06 07:40:12;;;;;;;11.00;4.70;;;;;;;15.19;78.75;100327.23;113314;1198;22440;-62
2021/10/06 07:42:40;;;;;;;10.60;3.30;;;;;;;15.19;78.89;100329.11;113359;1198;22467;-63
2021/10/06 07:45:10;;;;;;;8.00;2.70;;;;;;;15.21;78.79;100334.17;113428;1198;22443;-61
2021/10/06 07:47:39;;;;;;;11.80;3.10;;;;;;;15.20;78.73;100332.54;113565;1198;22424;-60
2021/10/06 07:50:08;;;;;;;10.00;2.90;;;;;;;15.20;78.84;100333.58;113283;1198;24078;-61
2021/10/06 07:52:39;;;;;;;12.10;3.90;;;;;;;15.23;79.02;100339.65;113530;1193;25127;-61
2021/10/06 07:55:09;;;;;;;10.30;3.90;;;;;;;15.25;79.17;100335.77;113261;1198;23976;-62
2021/10/06 07:57:38;;;;;;;13.70;3.80;;;;;;;15.27;79.26;100339.26;113446;1192;25152;-62
2021/10/06 08:00:11;;;;;;;13.40;3.70;;;;;;;15.29;79.51;100344.12;113207;1198;22434;-60
2021/10/06 08:02:39;;;;;;;11.50;3.40;;;;;;;15.32;79.43;100355.16;113422;1198;25348;-62
2021/10/06 08:05:08;;;;;;;11.90;3.40;;;;;;;15.35;79.35;100356.45;113282;1193;22548;-59
2021/10/06 08:07:37;;;;;;;12.40;3.60;;;;;;;15.38;79.29;100353.08;113379;1184;24157;-59
2021/10/06 08:10:07;;;;;;;11.40;3.70;;;;;;;15.41;79.26;100340.23;113157;1198;22444;-59
2021/10/06 08:12:35;;;;;;;11.00;3.30;;;;;;;15.44;78.93;100342.41;113269;1198;22440;-60
2021/10/06 08:15:05;;;;;;;10.70;3.70;;;;;;;15.48;79.19;100346.77;113090;1198;22453;-60
2021/10/06 08:17:33;;;;;;;12.40;3.60;;;;;;;15.52;79.27;100359.62;113249;1198;23182;-60
2021/10/06 08:20:02;;;;;;;11.70;3.30;;;;;;;15.55;79.36;100364.27;113397;1198;22425;-60
2021/10/06 08:22:30;;;;;;;14.20;3.20;;;;;;;15.59;79.42;100364.43;113279;1198;25120;-60
2021/10/06 08:24:58;;;;;;;11.30;2.70;;;;;;;15.60;79.28;100364.79;113085;1193;22556;-60
2021/10/06 08:27:26;;;;;;;14.00;3.20;;;;;;;15.63;79.17;100371.39;113044;1198;25182;-62
2021/10/06 08:29:54;;;;;;;8.80;2.20;;;;;;;15.66;79.19;100373.25;112968;1198;22429;-60
2021/10/06 08:32:22;;;;;;;8.90;2.40;;;;;;;15.70;79.30;100383.38;113147;1198;24088;-61
2021/10/06 08:34:51;;;;;;;12.00;2.40;;;;;;;15.74;79.43;100386.90;113152;1198;22436;-60
2021/10/06 08:37:19;;;;;;;11.50;2.50;;;;;;;15.75;78.92;100384.91;113564;1198;24192;-60
2021/10/06 08:39:48;;;;;;;11.20;2.40;;;;;;;15.77;78.91;100387.77;113310;1198;22405;-62
2021/10/06 08:42:16;;;;;;;9.60;2.30;;;;;;;15.79;78.93;100389.11;113333;1198;22555;-61
2021/10/06 08:44:47;;;;;;;11.20;2.20;;;;;;;15.83;78.76;100387.06;113285;1198;22454;-60
2021/10/06 08:47:15;;;;;;;9.00;1.70;;;;;;;15.82;78.54;100390.48;113367;1193;25194;-60
2021/10/06 08:49:44;;;;;;;7.50;2.00;;;;;;;15.79;78.22;100391.97;113232;1198;25027;-60
2021/10/06 08:52:12;;;;;;;9.70;1.80;;;;;;;15.80;78.38;100399.09;113333;1198;24110;-60
2021/10/06 08:54:40;;;;;;;7.70;1.60;;;;;;;15.82;78.39;100407.28;113196;1198;22491;-61
2021/10/06 08:57:15;;;;;;;6.60;1.50;;;;;;;15.83;78.03;100406.92;113187;1198;22989;-61
2021/10/06 08:59:44;;;;;;;5.90;1.60;;;;;;;15.83;77.89;100407.54;113275;1198;22420;-61
2021/10/06 09:02:15;;;;;;;7.50;1.50;;;;;;;15.82;77.66;100408.72;113340;1184;22453;-61
2021/10/06 09:04:43;;;;;;;6.90;1.60;;;;;;;15.84;77.85;100413.06;113283;1193;25352;-60
2021/10/06 09:07:12;;;;;;;7.00;1.80;;;;;;;15.87;78.01;100413.53;113218;1198;25185;-60
2021/10/06 09:09:41;;;;;;;6.70;1.50;;;;;;;15.89;77.97;100416.95;113120;1193;24292;-63
2021/10/06 09:12:14;;;;;;;6.90;1.60;;;;;;;15.94;78.02;100420.23;113105;1193;25418;-61
2021/10/06 09:14:45;;;;;;;9.30;1.90;;;;;;;15.98;77.63;100429.70;113277;1193;24746;-60
2021/10/06 09:17:13;;;;;;;;;;;;;;;15.98;77.56;100430.06;113303;1198;24993;-60
2021/10/06 09:19:43;;;;;;;6.30;1.60;;;;;;;15.98;77.43;100425.03;113134;1198;22441;-63
2021/10/06 09:22:17;;;;;;;6.40;1.70;;;;;;;15.97;77.38;100429.64;113266;1198;24038;-60
2021/10/06 09:25:07;;;;;;;6.10;1.40;;;;;;;15.98;77.32;100433.18;113469;1198;22426;-61
2021/10/06 09:27:38;;;;;;;6.10;1.60;;;;;;;16.00;77.14;100433.32;113257;1198;23795;-60
2021/10/06 09:30:11;;;;;;;7.80;1.60;;;;;;;16.02;77.10;100437.23;113222;1193;22481;-61
2021/10/06 09:32:41;;;;;;;7.10;1.80;;;;;;;16.06;77.19;100437.33;113122;1193;26271;-61
2021/10/06 09:35:13;;;;;;;6.50;1.50;;;;;;;16.05;76.70;100436.56;113053;1193;22428;-60
2021/10/06 09:37:45;;;;;;;8.50;1.90;;;;;;;16.04;76.72;100437.69;113636;1198;22473;-63
2021/10/06 09:40:15;;;;;;;5.80;1.50;;;;;;;16.03;76.77;100440.56;113222;1198;22699;-60
2021/10/06 09:42:49;;;;;;;5.70;1.50;;;;;;;16.04;76.71;100443.27;113140;1198;23958;-62
2021/10/06 09:45:26;;;;;;;6.40;1.80;;;;;;;16.05;76.78;100452.18;113176;1198;22570;-61
2021/10/06 09:48:08;;;;;;;7.70;1.90;;;;;;;16.08;76.81;100449.26;113356;1198;22550;-61
2021/10/06 09:50:39;;;;;;;11.50;2.50;;;;;;;16.13;76.72;100451.05;113251;1190;24128;-60
2021/10/06 09:53:14;;;;;;;7.80;2.10;;;;;;;16.15;76.66;100451.41;113068;1198;22442;-61
2021/10/06 09:55:45;;;;;;;7.30;1.50;;;;;;;16.19;76.80;100450.44;113021;1193;26120;-61
2021/10/06 09:58:14;;;;;;;25.50;13.20;;;;;;;16.23;76.80;100450.79;113086;1198;22432;-61
2021/10/06 10:00:45;;;;;;;43.20;22.30;;;;;;;16.27;76.81;100451.52;113650;1198;25198;-60
2021/10/06 10:03:14;;;;;;;12.70;3.40;;;;;;;16.27;76.48;100457.91;113046;1198;22431;-61
2021/10/06 10:05:43;;;;;;;7.40;2.10;;;;;;;16.25;76.25;100456.53;113095;1198;25136;-62
2021/10/06 10:08:12;;;;;;;8.70;2.30;;;;;;;16.26;76.36;100451.20;113198;1198;22428;-61
2021/10/06 10:10:41;;;;;;;6.40;1.60;;;;;;;16.26;76.10;100451.86;113397;1198;22520;-60
2021/10/06 10:13:29;;;;;;;6.30;1.70;;;;;;;16.26;76.09;100456.95;113368;1193;22429;-60
2021/10/06 10:15:59;;;;;;;7.10;1.90;;;;;;;16.28;76.19;100457.24;113036;1198;25120;-60
2021/10/06 10:18:28;;;;;;;6.90;2.00;;;;;;;16.31;76.30;100464.20;113478;1193;22610;-60
2021/10/06 10:20:57;;;;;;;8.50;2.40;;;;;;;16.33;76.38;100469.98;112997;1193;23410;-60
2021/10/06 10:23:25;;;;;;;6.20;1.80;;;;;;;16.37;76.25;100474.24;113015;1198;26376;-60
2021/10/06 10:25:53;;;;;;;9.10;2.00;;;;;;;16.40;76.29;100480.85;113053;1193;25246;-60
2021/10/06 10:28:23;;;;;;;7.70;2.00;;;;;;;16.44;76.07;100479.52;112989;1193;24064;-60
2021/10/06 10:31:00;;;;;;;8.00;2.00;;;;;;;16.44;75.69;100477.20;113142;1198;25064;-61
2021/10/06 10:33:41;;;;;;;7.30;2.10;;;;;;;16.44;75.91;100476.48;113376;1198;25182;-61
2021/10/06 10:36:48;;;;;;;8.50;2.20;;;;;;;16.45;75.88;100478.54;113221;1198;23162;-62
2021/10/06 10:39:57;;;;;;;9.90;2.50;;;;;;;16.47;75.52;100483.46;112732;1198;22684;-61
2021/10/06 10:42:58;;;;;;;10.40;2.30;;;;;;;16.45;75.15;100482.08;112998;1198;25111;-61
2021/10/06 10:45:34;;;;;;;;;;;;;;;16.45;75.35;100485.91;113380;1198;22997;-60
2021/10/06 10:48:04;;;;;;;7.00;1.90;;;;;;;16.45;75.15;100488.42;112960;1198;22464;-62
2021/10/06 10:51:00;;;;;;;7.90;1.80;;;;;;;16.43;74.91;100486.28;113116;1192;25297;-60
2021/10/06 10:53:59;;;;;;;6.70;1.60;;;;;;;16.42;74.75;100487.92;113057;1198;22442;-62
2021/10/06 10:56:50;;;;;;;8.70;2.00;;;;;;;16.45;74.95;100490.83;113306;1198;24093;-62
2021/10/06 10:59:21;;;;;;;8.80;2.00;;;;;;;16.45;74.44;100487.91;113127;1198;22426;-61
2021/10/06 11:01:53;;;;;;;7.60;2.20;;;;;;;16.41;74.36;100489.56;113360;1198;22457;-61
2021/10/06 11:04:24;;;;;;;12.40;2.00;;;;;;;16.37;74.33;100489.81;113264;1198;22539;-60
2021/10/06 11:06:54;;;;;;;8.30;2.30;;;;;;;16.33;74.23;100483.26;112967;1198;24442;-62
2021/10/06 11:09:41;;;;;;;8.30;1.60;;;;;;;16.31;74.19;100480.85;113525;1198;22435;-60
2021/10/06 11:12:37;;;;;;;7.60;2.20;;;;;;;16.33;73.83;100480.75;113410;1197;22416;-63
2021/10/06 11:15:34;;;;;;;7.50;1.60;;;;;;;16.32;73.71;100483.48;113163;1193;25204;-61
2021/10/06 11:18:28;;;;;;;5.10;1.40;;;;;;;16.34;73.60;100484.86;112993;1198;22567;-63
2021/10/06 11:21:04;;;;;;;5.50;1.70;;;;;;;16.38;73.27;100485.71;113189;1198;22469;-61
2021/10/06 11:23:41;;;;;;;10.70;1.80;;;;;;;16.39;73.09;100486.90;113132;1198;22562;-61
2021/10/06 11:26:12;;;;;;;5.90;1.50;;;;;;;16.42;73.06;100489.70;113099;1198;22439;-60
2021/10/06 11:28:43;;;;;;;6.20;1.70;;;;;;;16.44;73.16;100492.52;113031;1192;22528;-61